sensor_id;sensor_type;location;lat;lon;timestamp;P1;durP1;ratioP1;P2;durP2;ratioP2
45802;SDS011;31504;51.716;9.184;2022-09-13T00:01:37;7.45;;;6.75;;
45802;SDS011;31504;51.716;9.184;2022-09-13T00:04:37;7.50;;;6.68;;
45802;SDS011;31504;51.716;9.184;2022-09-13T00:07:37;7.50;;;6.80;;
45802;SDS011;31504;51.716;9.184;2022-09-13T00:10:39;8.32;;;6.78;;
45802;SDS011;31504;51.716;9.184;2022-09-13T00:13:40;7.25;;;6.55;;
45802;SDS011;31504;51.716;9.184;2022-09-13T00:16:41;7.72;;;6.93;;
45802;SDS011;31504;51.716;9.184;2022-09-13T00:19:41;7.85;;;7.05;;
45802;SDS011;31504;51.716;9.184;2022-09-13T00:22:42;8.15;;;7.15;;
45802;SDS011;31504;51.716;9.184;2022-09-13T00:25:42;6.80;;;6.13;;
45802;SDS011;31504;51.716;9.184;2022-09-13T00:28:43;7.75;;;6.95;;
45802;SDS011;31504;51.716;9.184;2022-09-13T00:31:47;7.63;;;6.80;;
45802;SDS011;31504;51.716;9.184;2022-09-13T00:34:47;9.40;;;7.05;;
45802;SDS011;31504;51.716;9.184;2022-09-13T00:37:48;7.30;;;6.60;;
45802;SDS011;31504;51.716;9.184;2022-09-13T00:40:49;8.15;;;7.30;;
45802;SDS011;31504;51.716;9.184;2022-09-13T00:43:51;8.30;;;6.80;;
45802;SDS011;31504;51.716;9.184;2022-09-13T00:46:53;7.45;;;6.43;;
45802;SDS011;31504;51.716;9.184;2022-09-13T00:49:56;6.93;;;6.22;;
45802;SDS011;31504;51.716;9.184;2022-09-13T00:53:02;7.68;;;6.32;;
45802;SDS011;31504;51.716;9.184;2022-09-13T00:56:15;7.78;;;7.00;;
45802;SDS011;31504;51.716;9.184;2022-09-13T00:59:34;9.27;;;6.80;;
45802;SDS011;31504;51.716;9.184;2022-09-13T01:02:40;6.88;;;6.28;;
45802;SDS011;31504;51.716;9.184;2022-09-13T01:05:52;6.47;;;5.88;;
45802;SDS011;31504;51.716;9.184;2022-09-13T01:08:57;8.27;;;6.78;;
45802;SDS011;31504;51.716;9.184;2022-09-13T01:12:04;6.30;;;5.70;;
45802;SDS011;31504;51.716;9.184;2022-09-13T01:15:14;7.00;;;6.10;;
45802;SDS011;31504;51.716;9.184;2022-09-13T01:18:15;6.53;;;5.60;;
45802;SDS011;31504;51.716;9.184;2022-09-13T01:21:41;6.72;;;6.03;;
45802;SDS011;31504;51.716;9.184;2022-09-13T01:31:47;6.32;;;5.72;;
45802;SDS011;31504;51.716;9.184;2022-09-13T01:35:09;6.10;;;5.50;;
45802;SDS011;31504;51.716;9.184;2022-09-13T01:38:42;6.80;;;6.13;;
45802;SDS011;31504;51.716;9.184;2022-09-13T01:48:33;6.00;;;5.40;;
45802;SDS011;31504;51.716;9.184;2022-09-13T02:01:29;5.47;;;4.88;;
45802;SDS011;31504;51.716;9.184;2022-09-13T02:04:40;5.88;;;5.28;;
45802;SDS011;31504;51.716;9.184;2022-09-13T02:07:49;5.60;;;5.10;;
45802;SDS011;31504;51.716;9.184;2022-09-13T02:10:59;4.88;;;4.47;;
45802;SDS011;31504;51.716;9.184;2022-09-13T02:14:12;5.03;;;4.53;;
45802;SDS011;31504;51.716;9.184;2022-09-13T02:17:16;4.70;;;4.30;;
45802;SDS011;31504;51.716;9.184;2022-09-13T02:20:26;4.68;;;4.22;;
45802;SDS011;31504;51.716;9.184;2022-09-13T02:23:37;5.50;;;5.00;;
45802;SDS011;31504;51.716;9.184;2022-09-13T02:26:43;5.65;;;4.65;;
45802;SDS011;31504;51.716;9.184;2022-09-13T02:29:46;4.32;;;3.92;;
45802;SDS011;31504;51.716;9.184;2022-09-13T02:36:35;4.63;;;4.22;;
45802;SDS011;31504;51.716;9.184;2022-09-13T02:39:41;4.80;;;4.40;;
45802;SDS011;31504;51.716;9.184;2022-09-13T02:42:50;4.57;;;4.20;;
45802;SDS011;31504;51.716;9.184;2022-09-13T02:46:00;4.72;;;4.32;;
45802;SDS011;31504;51.716;9.184;2022-09-13T02:49:28;4.68;;;4.28;;
45802;SDS011;31504;51.716;9.184;2022-09-13T02:52:43;5.13;;;4.65;;
45802;SDS011;31504;51.716;9.184;2022-09-13T02:55:59;4.90;;;4.50;;
45802;SDS011;31504;51.716;9.184;2022-09-13T02:59:18;4.70;;;4.30;;
45802;SDS011;31504;51.716;9.184;2022-09-13T03:02:20;5.03;;;4.63;;
45802;SDS011;31504;51.716;9.184;2022-09-13T03:05:26;5.15;;;4.65;;
45802;SDS011;31504;51.716;9.184;2022-09-13T03:08:26;5.80;;;4.85;;
45802;SDS011;31504;51.716;9.184;2022-09-13T03:11:38;6.13;;;4.38;;
45802;SDS011;31504;51.716;9.184;2022-09-13T03:18:23;4.97;;;4.57;;
45802;SDS011;31504;51.716;9.184;2022-09-13T03:21:52;5.18;;;4.75;;
45802;SDS011;31504;51.716;9.184;2022-09-13T03:25:14;5.15;;;4.65;;
45802;SDS011;31504;51.716;9.184;2022-09-13T03:28:49;5.28;;;4.78;;
45802;SDS011;31504;51.716;9.184;2022-09-13T03:32:33;5.45;;;4.90;;
45802;SDS011;31504;51.716;9.184;2022-09-13T03:35:45;5.72;;;4.65;;
45802;SDS011;31504;51.716;9.184;2022-09-13T03:39:06;5.20;;;4.75;;
45802;SDS011;31504;51.716;9.184;2022-09-13T03:42:29;5.93;;;4.65;;
45802;SDS011;31504;51.716;9.184;2022-09-13T03:45:51;5.45;;;4.40;;
45802;SDS011;31504;51.716;9.184;2022-09-13T03:48:55;5.05;;;4.45;;
45802;SDS011;31504;51.716;9.184;2022-09-13T03:51:59;5.50;;;5.00;;
45802;SDS011;31504;51.716;9.184;2022-09-13T03:54:59;5.07;;;4.53;;
45802;SDS011;31504;51.716;9.184;2022-09-13T03:58:00;5.30;;;4.80;;
45802;SDS011;31504;51.716;9.184;2022-09-13T04:01:01;5.70;;;4.95;;
45802;SDS011;31504;51.716;9.184;2022-09-13T04:04:01;5.45;;;4.63;;
45802;SDS011;31504;51.716;9.184;2022-09-13T04:07:02;4.70;;;4.30;;
45802;SDS011;31504;51.716;9.184;2022-09-13T04:10:03;5.57;;;4.78;;
45802;SDS011;31504;51.716;9.184;2022-09-13T04:13:04;4.82;;;4.43;;
45802;SDS011;31504;51.716;9.184;2022-09-13T04:16:04;4.78;;;4.38;;
45802;SDS011;31504;51.716;9.184;2022-09-13T04:19:06;4.95;;;4.55;;
45802;SDS011;31504;51.716;9.184;2022-09-13T04:22:07;5.07;;;4.63;;
45802;SDS011;31504;51.716;9.184;2022-09-13T04:25:07;4.43;;;4.05;;
45802;SDS011;31504;51.716;9.184;2022-09-13T04:28:08;4.45;;;4.05;;
45802;SDS011;31504;51.716;9.184;2022-09-13T04:31:08;4.38;;;3.97;;
45802;SDS011;31504;51.716;9.184;2022-09-13T04:34:09;5.03;;;4.63;;
45802;SDS011;31504;51.716;9.184;2022-09-13T04:37:10;4.20;;;3.85;;
45802;SDS011;31504;51.716;9.184;2022-09-13T04:40:11;6.13;;;4.80;;
45802;SDS011;31504;51.716;9.184;2022-09-13T04:43:12;5.18;;;4.68;;
45802;SDS011;31504;51.716;9.184;2022-09-13T04:46:12;5.25;;;4.18;;
45802;SDS011;31504;51.716;9.184;2022-09-13T04:49:13;5.35;;;4.18;;
45802;SDS011;31504;51.716;9.184;2022-09-13T04:52:14;4.88;;;4.38;;
45802;SDS011;31504;51.716;9.184;2022-09-13T04:55:14;4.22;;;3.90;;
45802;SDS011;31504;51.716;9.184;2022-09-13T04:58:15;4.93;;;4.43;;
45802;SDS011;31504;51.716;9.184;2022-09-13T05:01:16;4.28;;;3.92;;
45802;SDS011;31504;51.716;9.184;2022-09-13T05:04:16;5.25;;;4.75;;
45802;SDS011;31504;51.716;9.184;2022-09-13T05:07:17;10.50;;;8.32;;
45802;SDS011;31504;51.716;9.184;2022-09-13T05:10:18;12.32;;;10.07;;
45802;SDS011;31504;51.716;9.184;2022-09-13T05:13:18;17.77;;;14.80;;
45802;SDS011;31504;51.716;9.184;2022-09-13T05:16:19;18.27;;;16.02;;
45802;SDS011;31504;51.716;9.184;2022-09-13T05:19:20;21.27;;;18.98;;
45802;SDS011;31504;51.716;9.184;2022-09-13T05:22:20;24.20;;;21.00;;
45802;SDS011;31504;51.716;9.184;2022-09-13T05:25:21;28.15;;;25.05;;
45802;SDS011;31504;51.716;9.184;2022-09-13T05:28:21;38.70;;;33.90;;
45802;SDS011;31504;51.716;9.184;2022-09-13T05:31:23;42.25;;;36.45;;
45802;SDS011;31504;51.716;9.184;2022-09-13T05:34:29;41.08;;;36.13;;
45802;SDS011;31504;51.716;9.184;2022-09-13T05:37:29;42.20;;;36.80;;
45802;SDS011;31504;51.716;9.184;2022-09-13T05:40:30;45.25;;;36.80;;
45802;SDS011;31504;51.716;9.184;2022-09-13T05:43:31;50.28;;;37.72;;
45802;SDS011;31504;51.716;9.184;2022-09-13T05:46:34;41.88;;;36.03;;
45802;SDS011;31504;51.716;9.184;2022-09-13T05:49:35;42.90;;;38.03;;
45802;SDS011;31504;51.716;9.184;2022-09-13T05:52:36;47.78;;;40.70;;
45802;SDS011;31504;51.716;9.184;2022-09-13T05:55:36;53.60;;;44.53;;
45802;SDS011;31504;51.716;9.184;2022-09-13T05:58:37;59.38;;;52.20;;
45802;SDS011;31504;51.716;9.184;2022-09-13T06:01:43;77.53;;;66.10;;
45802;SDS011;31504;51.716;9.184;2022-09-13T06:04:44;81.38;;;69.63;;
45802;SDS011;31504;51.716;9.184;2022-09-13T06:07:44;85.30;;;70.68;;
45802;SDS011;31504;51.716;9.184;2022-09-13T06:10:58;80.28;;;68.70;;
45802;SDS011;31504;51.716;9.184;2022-09-13T06:14:01;77.68;;;65.32;;
45802;SDS011;31504;51.716;9.184;2022-09-13T06:17:02;72.45;;;60.10;;
45802;SDS011;31504;51.716;9.184;2022-09-13T06:20:02;68.28;;;58.45;;
45802;SDS011;31504;51.716;9.184;2022-09-13T06:23:03;70.95;;;59.15;;
45802;SDS011;31504;51.716;9.184;2022-09-13T06:26:05;70.63;;;57.60;;
45802;SDS011;31504;51.716;9.184;2022-09-13T06:29:10;64.13;;;55.63;;
45802;SDS011;31504;51.716;9.184;2022-09-13T06:32:11;61.08;;;51.28;;
45802;SDS011;31504;51.716;9.184;2022-09-13T06:35:12;55.08;;;47.58;;
45802;SDS011;31504;51.716;9.184;2022-09-13T06:38:12;54.80;;;45.85;;
45802;SDS011;31504;51.716;9.184;2022-09-13T06:41:14;56.17;;;47.58;;
45802;SDS011;31504;51.716;9.184;2022-09-13T06:44:17;57.22;;;50.47;;
45802;SDS011;31504;51.716;9.184;2022-09-13T06:47:18;59.28;;;51.53;;
45802;SDS011;31504;51.716;9.184;2022-09-13T06:50:18;61.67;;;51.25;;
45802;SDS011;31504;51.716;9.184;2022-09-13T06:53:19;58.28;;;51.15;;
45802;SDS011;31504;51.716;9.184;2022-09-13T06:56:20;52.70;;;46.55;;
45802;SDS011;31504;51.716;9.184;2022-09-13T06:59:23;47.25;;;41.45;;
45802;SDS011;31504;51.716;9.184;2022-09-13T07:02:23;45.30;;;39.03;;
45802;SDS011;31504;51.716;9.184;2022-09-13T07:05:24;39.85;;;35.50;;
45802;SDS011;31504;51.716;9.184;2022-09-13T07:08:25;40.25;;;33.58;;
45802;SDS011;31504;51.716;9.184;2022-09-13T07:11:26;35.42;;;31.48;;
45802;SDS011;31504;51.716;9.184;2022-09-13T07:14:29;42.63;;;37.17;;
45802;SDS011;31504;51.716;9.184;2022-09-13T07:17:30;47.58;;;40.60;;
45802;SDS011;31504;51.716;9.184;2022-09-13T07:20:30;48.63;;;42.53;;
45802;SDS011;31504;51.716;9.184;2022-09-13T07:23:32;54.85;;;47.15;;
45802;SDS011;31504;51.716;9.184;2022-09-13T07:26:34;51.33;;;43.95;;
45802;SDS011;31504;51.716;9.184;2022-09-13T07:29:35;51.08;;;42.83;;
45802;SDS011;31504;51.716;9.184;2022-09-13T07:32:35;47.92;;;41.00;;
45802;SDS011;31504;51.716;9.184;2022-09-13T07:35:36;45.70;;;38.78;;
45802;SDS011;31504;51.716;9.184;2022-09-13T07:38:37;48.42;;;41.80;;
45802;SDS011;31504;51.716;9.184;2022-09-13T07:41:39;57.08;;;49.20;;
45802;SDS011;31504;51.716;9.184;2022-09-13T07:44:40;70.63;;;57.78;;
45802;SDS011;31504;51.716;9.184;2022-09-13T07:47:40;62.63;;;53.83;;
45802;SDS011;31504;51.716;9.184;2022-09-13T07:50:41;68.18;;;57.08;;
45802;SDS011;31504;51.716;9.184;2022-09-13T07:53:42;69.47;;;56.40;;
45802;SDS011;31504;51.716;9.184;2022-09-13T07:56:43;61.80;;;52.17;;
45802;SDS011;31504;51.716;9.184;2022-09-13T07:59:44;59.22;;;50.30;;
45802;SDS011;31504;51.716;9.184;2022-09-13T08:02:45;55.72;;;47.72;;
45802;SDS011;31504;51.716;9.184;2022-09-13T08:05:45;54.50;;;46.83;;
45802;SDS011;31504;51.716;9.184;2022-09-13T08:08:46;54.08;;;46.95;;
45802;SDS011;31504;51.716;9.184;2022-09-13T08:11:47;58.00;;;48.53;;
45802;SDS011;31504;51.716;9.184;2022-09-13T08:14:51;61.38;;;52.90;;
45802;SDS011;31504;51.716;9.184;2022-09-13T08:17:52;67.80;;;56.28;;
45802;SDS011;31504;51.716;9.184;2022-09-13T08:20:55;61.90;;;54.40;;
45802;SDS011;31504;51.716;9.184;2022-09-13T08:23:57;63.50;;;55.30;;
45802;SDS011;31504;51.716;9.184;2022-09-13T08:26:59;68.00;;;57.47;;
45802;SDS011;31504;51.716;9.184;2022-09-13T08:30:00;72.05;;;59.22;;
45802;SDS011;31504;51.716;9.184;2022-09-13T08:33:04;72.97;;;62.45;;
45802;SDS011;31504;51.716;9.184;2022-09-13T08:36:05;77.38;;;66.72;;
45802;SDS011;31504;51.716;9.184;2022-09-13T08:39:06;85.45;;;70.88;;
45802;SDS011;31504;51.716;9.184;2022-09-13T08:42:51;81.97;;;69.47;;
45802;SDS011;31504;51.716;9.184;2022-09-13T08:45:53;81.53;;;68.03;;
45802;SDS011;31504;51.716;9.184;2022-09-13T08:49:14;79.00;;;65.90;;
45802;SDS011;31504;51.716;9.184;2022-09-13T09:05:29;75.68;;;64.72;;
45802;SDS011;31504;51.716;9.184;2022-09-13T09:08:39;74.22;;;61.92;;
45802;SDS011;31504;51.716;9.184;2022-09-13T09:11:48;68.80;;;59.38;;
45802;SDS011;31504;51.716;9.184;2022-09-13T09:15:00;67.40;;;58.67;;
45802;SDS011;31504;51.716;9.184;2022-09-13T09:18:10;67.75;;;58.05;;
45802;SDS011;31504;51.716;9.184;2022-09-13T09:21:17;65.50;;;57.08;;
45802;SDS011;31504;51.716;9.184;2022-09-13T09:24:21;68.55;;;57.88;;
45802;SDS011;31504;51.716;9.184;2022-09-13T09:27:24;69.40;;;59.92;;
45802;SDS011;31504;51.716;9.184;2022-09-13T09:30:34;71.13;;;61.90;;
45802;SDS011;31504;51.716;9.184;2022-09-13T09:33:47;74.93;;;60.60;;
45802;SDS011;31504;51.716;9.184;2022-09-13T09:37:16;72.93;;;62.72;;
45802;SDS011;31504;51.716;9.184;2022-09-13T09:40:19;74.10;;;63.63;;
45802;SDS011;31504;51.716;9.184;2022-09-13T09:43:25;78.45;;;67.47;;
45802;SDS011;31504;51.716;9.184;2022-09-13T09:46:32;83.18;;;70.32;;
45802;SDS011;31504;51.716;9.184;2022-09-13T09:56:31;84.40;;;72.30;;
45802;SDS011;31504;51.716;9.184;2022-09-13T09:59:33;88.13;;;75.25;;
45802;SDS011;31504;51.716;9.184;2022-09-13T10:02:34;94.60;;;80.80;;
45802;SDS011;31504;51.716;9.184;2022-09-13T10:05:42;95.00;;;82.82;;
45802;SDS011;31504;51.716;9.184;2022-09-13T10:08:47;91.07;;;79.35;;
45802;SDS011;31504;51.716;9.184;2022-09-13T10:11:56;98.05;;;86.03;;
45802;SDS011;31504;51.716;9.184;2022-09-13T10:15:17;99.43;;;84.35;;
45802;SDS011;31504;51.716;9.184;2022-09-13T10:18:20;95.95;;;81.65;;
45802;SDS011;31504;51.716;9.184;2022-09-13T10:21:23;103.00;;;89.03;;
45802;SDS011;31504;51.716;9.184;2022-09-13T10:24:24;116.82;;;101.93;;
45802;SDS011;31504;51.716;9.184;2022-09-13T10:27:31;110.95;;;96.22;;
45802;SDS011;31504;51.716;9.184;2022-09-13T10:30:39;120.90;;;104.18;;
45802;SDS011;31504;51.716;9.184;2022-09-13T10:33:42;140.90;;;118.47;;
45802;SDS011;31504;51.716;9.184;2022-09-13T10:36:53;126.95;;;110.75;;
45802;SDS011;31504;51.716;9.184;2022-09-13T10:40:19;130.30;;;114.30;;
45802;SDS011;31504;51.716;9.184;2022-09-13T10:43:28;137.10;;;121.05;;
45802;SDS011;31504;51.716;9.184;2022-09-13T10:46:35;132.80;;;114.85;;
45802;SDS011;31504;51.716;9.184;2022-09-13T10:49:39;135.18;;;120.25;;
45802;SDS011;31504;51.716;9.184;2022-09-13T10:52:50;140.68;;;120.65;;
45802;SDS011;31504;51.716;9.184;2022-09-13T10:55:53;132.88;;;115.97;;
45802;SDS011;31504;51.716;9.184;2022-09-13T10:59:13;130.25;;;113.18;;
45802;SDS011;31504;51.716;9.184;2022-09-13T11:06:10;124.10;;;109.40;;
45802;SDS011;31504;51.716;9.184;2022-09-13T11:09:32;109.13;;;94.43;;
45802;SDS011;31504;51.716;9.184;2022-09-13T11:12:41;109.80;;;97.72;;
45802;SDS011;31504;51.716;9.184;2022-09-13T11:25:58;82.68;;;70.45;;
45802;SDS011;31504;51.716;9.184;2022-09-13T11:36:26;66.38;;;56.58;;
45802;SDS011;31504;51.716;9.184;2022-09-13T11:42:54;64.28;;;55.50;;
45802;SDS011;31504;51.716;9.184;2022-09-13T11:46:21;59.55;;;50.72;;
45802;SDS011;31504;51.716;9.184;2022-09-13T11:49:36;56.40;;;48.38;;
45802;SDS011;31504;51.716;9.184;2022-09-13T11:52:55;51.40;;;43.75;;
45802;SDS011;31504;51.716;9.184;2022-09-13T11:56:13;49.08;;;42.05;;
45802;SDS011;31504;51.716;9.184;2022-09-13T11:59:31;47.80;;;42.60;;
45802;SDS011;31504;51.716;9.184;2022-09-13T12:02:44;47.72;;;41.58;;
45802;SDS011;31504;51.716;9.184;2022-09-13T12:06:01;47.35;;;38.28;;
45802;SDS011;31504;51.716;9.184;2022-09-13T12:09:10;44.88;;;38.90;;
45802;SDS011;31504;51.716;9.184;2022-09-13T12:12:20;44.58;;;38.28;;
45802;SDS011;31504;51.716;9.184;2022-09-13T12:18:40;46.03;;;38.15;;
45802;SDS011;31504;51.716;9.184;2022-09-13T12:21:45;40.95;;;35.63;;
45802;SDS011;31504;51.716;9.184;2022-09-13T12:24:55;42.10;;;37.45;;
45802;SDS011;31504;51.716;9.184;2022-09-13T12:28:02;41.03;;;36.08;;
45802;SDS011;31504;51.716;9.184;2022-09-13T12:31:14;42.35;;;36.65;;
45802;SDS011;31504;51.716;9.184;2022-09-13T12:34:21;41.50;;;35.70;;
45802;SDS011;31504;51.716;9.184;2022-09-13T12:37:34;41.00;;;34.90;;
45802;SDS011;31504;51.716;9.184;2022-09-13T12:44:16;39.10;;;32.92;;
45802;SDS011;31504;51.716;9.184;2022-09-13T12:50:58;37.42;;;32.72;;
45802;SDS011;31504;51.716;9.184;2022-09-13T13:04:12;36.28;;;31.98;;
45802;SDS011;31504;51.716;9.184;2022-09-13T13:07:19;41.10;;;31.17;;
45802;SDS011;31504;51.716;9.184;2022-09-13T13:10:32;34.15;;;29.70;;
45802;SDS011;31504;51.716;9.184;2022-09-13T13:13:45;30.45;;;26.73;;
45802;SDS011;31504;51.716;9.184;2022-09-13T13:16:54;31.13;;;27.40;;
45802;SDS011;31504;51.716;9.184;2022-09-13T13:27:31;21.92;;;17.92;;
45802;SDS011;31504;51.716;9.184;2022-09-13T13:40:26;18.55;;;15.73;;
45802;SDS011;31504;51.716;9.184;2022-09-13T13:43:29;15.38;;;13.52;;
45802;SDS011;31504;51.716;9.184;2022-09-13T13:46:32;16.38;;;14.27;;
45802;SDS011;31504;51.716;9.184;2022-09-13T13:52:38;16.15;;;14.45;;
45802;SDS011;31504;51.716;9.184;2022-09-13T13:56:03;19.27;;;16.30;;
45802;SDS011;31504;51.716;9.184;2022-09-13T13:59:29;20.08;;;17.92;;
45802;SDS011;31504;51.716;9.184;2022-09-13T14:22:23;24.25;;;21.65;;
45802;SDS011;31504;51.716;9.184;2022-09-13T14:25:25;24.20;;;20.80;;
45802;SDS011;31504;51.716;9.184;2022-09-13T14:28:26;24.52;;;20.20;;
45802;SDS011;31504;51.716;9.184;2022-09-13T14:31:27;23.15;;;19.73;;
45802;SDS011;31504;51.716;9.184;2022-09-13T14:34:29;21.52;;;17.95;;
45802;SDS011;31504;51.716;9.184;2022-09-13T14:37:35;19.08;;;17.08;;
45802;SDS011;31504;51.716;9.184;2022-09-13T14:40:37;19.85;;;16.60;;
45802;SDS011;31504;51.716;9.184;2022-09-13T14:43:38;18.23;;;14.63;;
45802;SDS011;31504;51.716;9.184;2022-09-13T14:46:39;17.15;;;14.13;;
45802;SDS011;31504;51.716;9.184;2022-09-13T14:49:47;19.38;;;13.50;;
45802;SDS011;31504;51.716;9.184;2022-09-13T14:52:55;14.40;;;12.87;;
45802;SDS011;31504;51.716;9.184;2022-09-13T14:56:00;14.27;;;11.55;;
45802;SDS011;31504;51.716;9.184;2022-09-13T14:59:05;12.52;;;10.20;;
45802;SDS011;31504;51.716;9.184;2022-09-13T15:02:16;11.30;;;9.82;;
45802;SDS011;31504;51.716;9.184;2022-09-13T15:05:20;13.95;;;10.05;;
45802;SDS011;31504;51.716;9.184;2022-09-13T15:11:34;15.65;;;12.85;;
45802;SDS011;31504;51.716;9.184;2022-09-13T15:14:36;15.93;;;13.45;;
45802;SDS011;31504;51.716;9.184;2022-09-13T15:17:54;20.33;;;17.13;;
45802;SDS011;31504;51.716;9.184;2022-09-13T15:21:04;20.20;;;17.35;;
45802;SDS011;31504;51.716;9.184;2022-09-13T15:24:17;23.63;;;20.77;;
45802;SDS011;31504;51.716;9.184;2022-09-13T15:27:25;26.48;;;20.92;;
45802;SDS011;31504;51.716;9.184;2022-09-13T15:30:28;26.85;;;22.55;;
45802;SDS011;31504;51.716;9.184;2022-09-13T15:33:31;29.00;;;24.30;;
45802;SDS011;31504;51.716;9.184;2022-09-13T15:36:34;28.73;;;24.90;;
45802;SDS011;31504;51.716;9.184;2022-09-13T15:40:00;30.60;;;25.13;;
45802;SDS011;31504;51.716;9.184;2022-09-13T15:43:12;30.83;;;26.73;;
45802;SDS011;31504;51.716;9.184;2022-09-13T15:46:13;29.13;;;24.80;;
45802;SDS011;31504;51.716;9.184;2022-09-13T15:49:16;27.67;;;24.88;;
45802;SDS011;31504;51.716;9.184;2022-09-13T15:52:19;28.38;;;24.88;;
45802;SDS011;31504;51.716;9.184;2022-09-13T15:55:20;32.85;;;27.58;;
45802;SDS011;31504;51.716;9.184;2022-09-13T15:58:21;30.23;;;25.05;;
45802;SDS011;31504;51.716;9.184;2022-09-13T16:01:21;36.97;;;28.38;;
45802;SDS011;31504;51.716;9.184;2022-09-13T16:04:22;33.97;;;28.10;;
45802;SDS011;31504;51.716;9.184;2022-09-13T16:07:23;34.00;;;30.40;;
45802;SDS011;31504;51.716;9.184;2022-09-13T16:10:24;37.25;;;31.73;;
45802;SDS011;31504;51.716;9.184;2022-09-13T16:13:25;40.30;;;35.33;;
45802;SDS011;31504;51.716;9.184;2022-09-13T16:16:25;44.00;;;37.63;;
45802;SDS011;31504;51.716;9.184;2022-09-13T16:19:26;48.72;;;41.28;;
45802;SDS011;31504;51.716;9.184;2022-09-13T16:22:27;44.20;;;38.65;;
45802;SDS011;31504;51.716;9.184;2022-09-13T16:25:27;54.17;;;45.30;;
45802;SDS011;31504;51.716;9.184;2022-09-13T16:28:29;56.38;;;48.67;;
45802;SDS011;31504;51.716;9.184;2022-09-13T16:31:30;61.38;;;52.15;;
45802;SDS011;31504;51.716;9.184;2022-09-13T16:34:30;66.20;;;55.70;;
45802;SDS011;31504;51.716;9.184;2022-09-13T16:37:31;71.55;;;61.45;;
45802;SDS011;31504;51.716;9.184;2022-09-13T16:40:32;75.65;;;65.28;;
45802;SDS011;31504;51.716;9.184;2022-09-13T16:43:32;82.15;;;71.50;;
45802;SDS011;31504;51.716;9.184;2022-09-13T16:46:33;87.57;;;76.90;;
45802;SDS011;31504;51.716;9.184;2022-09-13T16:49:34;91.90;;;78.60;;
45802;SDS011;31504;51.716;9.184;2022-09-13T16:52:34;96.35;;;85.72;;
45802;SDS011;31504;51.716;9.184;2022-09-13T16:55:35;103.15;;;88.63;;
45802;SDS011;31504;51.716;9.184;2022-09-13T16:58:36;106.05;;;94.45;;
45802;SDS011;31504;51.716;9.184;2022-09-13T17:01:38;106.03;;;94.25;;
45802;SDS011;31504;51.716;9.184;2022-09-13T17:04:38;111.38;;;98.00;;
45802;SDS011;31504;51.716;9.184;2022-09-13T17:07:39;113.00;;;100.70;;
45802;SDS011;31504;51.716;9.184;2022-09-13T17:10:39;118.13;;;103.72;;
45802;SDS011;31504;51.716;9.184;2022-09-13T17:13:40;118.93;;;105.63;;
45802;SDS011;31504;51.716;9.184;2022-09-13T17:16:44;117.90;;;104.90;;
45802;SDS011;31504;51.716;9.184;2022-09-13T17:19:46;118.03;;;105.03;;
45802;SDS011;31504;51.716;9.184;2022-09-13T17:22:47;117.30;;;104.05;;
45802;SDS011;31504;51.716;9.184;2022-09-13T17:25:48;117.00;;;103.53;;
45802;SDS011;31504;51.716;9.184;2022-09-13T17:28:48;115.93;;;100.93;;
45802;SDS011;31504;51.716;9.184;2022-09-13T17:31:50;118.00;;;101.63;;
45802;SDS011;31504;51.716;9.184;2022-09-13T17:34:51;111.78;;;99.50;;
45802;SDS011;31504;51.716;9.184;2022-09-13T17:37:51;110.22;;;98.05;;
45802;SDS011;31504;51.716;9.184;2022-09-13T17:41:25;106.22;;;94.60;;
45802;SDS011;31504;51.716;9.184;2022-09-13T17:44:18;106.93;;;95.18;;
45802;SDS011;31504;51.716;9.184;2022-09-13T17:47:19;106.80;;;95.10;;
45802;SDS011;31504;51.716;9.184;2022-09-13T17:50:20;102.40;;;91.15;;
45802;SDS011;31504;51.716;9.184;2022-09-13T17:53:20;100.68;;;89.22;;
45802;SDS011;31504;51.716;9.184;2022-09-13T17:56:22;95.97;;;85.45;;
45802;SDS011;31504;51.716;9.184;2022-09-13T17:59:26;94.60;;;84.22;;
45802;SDS011;31504;51.716;9.184;2022-09-13T18:02:26;91.43;;;81.32;;
45802;SDS011;31504;51.716;9.184;2022-09-13T18:05:28;87.30;;;77.35;;
45802;SDS011;31504;51.716;9.184;2022-09-13T18:08:29;88.65;;;78.30;;
45802;SDS011;31504;51.716;9.184;2022-09-13T18:11:31;84.70;;;74.65;;
45802;SDS011;31504;51.716;9.184;2022-09-13T18:14:31;84.10;;;74.05;;
45802;SDS011;31504;51.716;9.184;2022-09-13T18:17:32;80.30;;;71.38;;
45802;SDS011;31504;51.716;9.184;2022-09-13T18:20:35;72.85;;;64.95;;
45802;SDS011;31504;51.716;9.184;2022-09-13T18:23:36;71.03;;;63.10;;
45802;SDS011;31504;51.716;9.184;2022-09-13T18:26:36;69.78;;;62.10;;
45802;SDS011;31504;51.716;9.184;2022-09-13T18:29:37;66.03;;;58.75;;
45802;SDS011;31504;51.716;9.184;2022-09-13T18:32:37;64.40;;;57.05;;
45802;SDS011;31504;51.716;9.184;2022-09-13T18:35:38;61.60;;;54.88;;
45802;SDS011;31504;51.716;9.184;2022-09-13T18:38:39;59.97;;;53.47;;
45802;SDS011;31504;51.716;9.184;2022-09-13T18:41:45;59.28;;;51.45;;
45802;SDS011;31504;51.716;9.184;2022-09-13T18:44:47;56.22;;;49.13;;
45802;SDS011;31504;51.716;9.184;2022-09-13T18:47:47;56.17;;;49.40;;
45802;SDS011;31504;51.716;9.184;2022-09-13T18:50:48;51.85;;;46.15;;
45802;SDS011;31504;51.716;9.184;2022-09-13T18:53:48;49.58;;;43.88;;
45802;SDS011;31504;51.716;9.184;2022-09-13T18:56:50;47.10;;;42.10;;
45802;SDS011;31504;51.716;9.184;2022-09-13T18:59:53;46.03;;;41.03;;
45802;SDS011;31504;51.716;9.184;2022-09-13T19:02:53;45.65;;;40.25;;
45802;SDS011;31504;51.716;9.184;2022-09-13T19:05:53;41.75;;;37.28;;
45802;SDS011;31504;51.716;9.184;2022-09-13T19:08:55;42.50;;;37.97;;
45802;SDS011;31504;51.716;9.184;2022-09-13T19:11:56;39.05;;;34.85;;
45802;SDS011;31504;51.716;9.184;2022-09-13T19:14:57;37.38;;;33.38;;
45802;SDS011;31504;51.716;9.184;2022-09-13T19:17:57;35.63;;;31.85;;
45802;SDS011;31504;51.716;9.184;2022-09-13T19:21:02;34.92;;;31.23;;
45802;SDS011;31504;51.716;9.184;2022-09-13T19:24:03;34.83;;;31.02;;
45802;SDS011;31504;51.716;9.184;2022-09-13T19:27:07;34.05;;;29.50;;
45802;SDS011;31504;51.716;9.184;2022-09-13T19:30:08;30.40;;;27.17;;
45802;SDS011;31504;51.716;9.184;2022-09-13T19:33:09;29.63;;;26.45;;
45802;SDS011;31504;51.716;9.184;2022-09-13T19:36:10;28.63;;;25.55;;
45802;SDS011;31504;51.716;9.184;2022-09-13T19:39:22;28.95;;;25.08;;
45802;SDS011;31504;51.716;9.184;2022-09-13T19:42:23;27.95;;;24.60;;
45802;SDS011;31504;51.716;9.184;2022-09-13T19:45:23;25.60;;;22.33;;
45802;SDS011;31504;51.716;9.184;2022-09-13T19:48:24;25.17;;;22.48;;
45802;SDS011;31504;51.716;9.184;2022-09-13T19:51:27;24.48;;;21.90;;
45802;SDS011;31504;51.716;9.184;2022-09-13T19:54:37;24.15;;;21.55;;
45802;SDS011;31504;51.716;9.184;2022-09-13T19:57:37;22.85;;;20.45;;
45802;SDS011;31504;51.716;9.184;2022-09-13T20:00:38;21.17;;;18.98;;
45802;SDS011;31504;51.716;9.184;2022-09-13T20:03:39;20.52;;;18.33;;
45802;SDS011;31504;51.716;9.184;2022-09-13T20:06:41;20.85;;;18.65;;
45802;SDS011;31504;51.716;9.184;2022-09-13T20:09:43;21.42;;;19.23;;
45802;SDS011;31504;51.716;9.184;2022-09-13T20:12:45;19.73;;;17.63;;
45802;SDS011;31504;51.716;9.184;2022-09-13T20:15:50;19.70;;;17.60;;
45802;SDS011;31504;51.716;9.184;2022-09-13T20:18:50;19.83;;;17.13;;
45802;SDS011;31504;51.716;9.184;2022-09-13T20:21:51;18.60;;;16.58;;
45802;SDS011;31504;51.716;9.184;2022-09-13T20:24:52;19.13;;;17.17;;
45802;SDS011;31504;51.716;9.184;2022-09-13T20:27:53;18.50;;;16.50;;